sensor_id;sensor_type;location;lat;lon;timestamp;temperature;humidity
18613;DHT22;9436;52.152;21.032;2023-01-23T00:00:14;2.60;99.90
18613;DHT22;9436;52.152;21.032;2023-01-23T00:02:41;2.50;99.90
18613;DHT22;9436;52.152;21.032;2023-01-23T00:05:09;2.60;99.90
18613;DHT22;9436;52.152;21.032;2023-01-23T00:07:36;2.70;99.90
18613;DHT22;9436;52.152;21.032;2023-01-23T00:10:04;2.60;99.90
18613;DHT22;9436;52.152;21.032;2023-01-23T00:12:33;2.60;99.90
18613;DHT22;9436;52.152;21.032;2023-01-23T00:15:00;2.60;99.90
18613;DHT22;9436;52.152;21.032;2023-01-23T00:17:27;2.60;99.90
18613;DHT22;9436;52.152;21.032;2023-01-23T00:19:55;2.60;99.90
18613;DHT22;9436;52.152;21.032;2023-01-23T00:22:23;2.70;99.90
18613;DHT22;9436;52.152;21.032;2023-01-23T00:24:50;2.70;99.90
18613;DHT22;9436;52.152;21.032;2023-01-23T00:27:17;2.70;99.90
18613;DHT22;9436;52.152;21.032;2023-01-23T00:29:45;2.60;99.90
18613;DHT22;9436;52.152;21.032;2023-01-23T00:32:13;2.70;99.90
18613;DHT22;9436;52.152;21.032;2023-01-23T00:34:40;2.80;99.90
18613;DHT22;9436;52.152;21.032;2023-01-23T00:37:07;2.80;99.90
18613;DHT22;9436;52.152;21.032;2023-01-23T00:39:34;2.70;99.90
18613;DHT22;9436;52.152;21.032;2023-01-23T00:42:01;2.70;99.90
18613;DHT22;9436;52.152;21.032;2023-01-23T00:44:28;2.60;99.90
18613;DHT22;9436;52.152;21.032;2023-01-23T00:46:57;2.70;99.90
18613;DHT22;9436;52.152;21.032;2023-01-23T00:49:24;2.70;99.90
18613;DHT22;9436;52.152;21.032;2023-01-23T00:51:51;2.70;99.90
18613;DHT22;9436;52.152;21.032;2023-01-23T00:54:21;2.70;99.90
18613;DHT22;9436;52.152;21.032;2023-01-23T00:56:50;2.60;99.90
18613;DHT22;9436;52.152;21.032;2023-01-23T00:59:17;2.70;99.90
18613;DHT22;9436;52.152;21.032;2023-01-23T01:01:44;2.70;99.90
18613;DHT22;9436;52.152;21.032;2023-01-23T01:04:13;2.70;99.90
18613;DHT22;9436;52.152;21.032;2023-01-23T01:06:40;2.60;99.90
18613;DHT22;9436;52.152;21.032;2023-01-23T01:09:07;2.70;99.90
18613;DHT22;9436;52.152;21.032;2023-01-23T01:11:34;2.60;99.90
18613;DHT22;9436;52.152;21.032;2023-01-23T01:14:02;2.50;99.90
18613;DHT22;9436;52.152;21.032;2023-01-23T01:16:29;2.60;99.90
18613;DHT22;9436;52.152;21.032;2023-01-23T01:18:56;2.50;99.90
18613;DHT22;9436;52.152;21.032;2023-01-23T01:21:26;2.60;99.90
18613;DHT22;9436;52.152;21.032;2023-01-23T01:23:53;2.50;99.90
18613;DHT22;9436;52.152;21.032;2023-01-23T01:26:20;2.60;99.90
18613;DHT22;9436;52.152;21.032;2023-01-23T01:28:48;2.60;99.90
18613;DHT22;9436;52.152;21.032;2023-01-23T01:31:15;2.60;99.90
18613;DHT22;9436;52.152;21.032;2023-01-23T01:33:43;2.50;99.90
18613;DHT22;9436;52.152;21.032;2023-01-23T01:36:12;2.50;99.90
18613;DHT22;9436;52.152;21.032;2023-01-23T01:38:41;2.50;99.90
18613;DHT22;9436;52.152;21.032;2023-01-23T01:41:09;2.60;99.90
18613;DHT22;9436;52.152;21.032;2023-01-23T01:43:37;2.60;99.90
18613;DHT22;9436;52.152;21.032;2023-01-23T01:46:16;2.60;99.90
18613;DHT22;9436;52.152;21.032;2023-01-23T01:48:51;2.60;99.90
18613;DHT22;9436;52.152;21.032;2023-01-23T01:51:24;2.60;99.90
18613;DHT22;9436;52.152;21.032;2023-01-23T01:53:58;2.60;99.90
18613;DHT22;9436;52.152;21.032;2023-01-23T01:56:27;2.70;99.90
18613;DHT22;9436;52.152;21.032;2023-01-23T01:58:56;2.70;99.90
18613;DHT22;9436;52.152;21.032;2023-01-23T02:01:24;2.70;99.90
18613;DHT22;9436;52.152;21.032;2023-01-23T02:03:53;2.70;99.90
18613;DHT22;9436;52.152;21.032;2023-01-23T02:06:20;2.60;99.90
18613;DHT22;9436;52.152;21.032;2023-01-23T02:08:55;2.60;99.90
18613;DHT22;9436;52.152;21.032;2023-01-23T02:11:26;2.50;99.90
18613;DHT22;9436;52.152;21.032;2023-01-23T02:13:53;2.60;99.90
18613;DHT22;9436;52.152;21.032;2023-01-23T02:16:24;2.60;99.90
18613;DHT22;9436;52.152;21.032;2023-01-23T02:18:56;2.60;99.90
18613;DHT22;9436;52.152;21.032;2023-01-23T02:21:24;2.60;99.90
18613;DHT22;9436;52.152;21.032;2023-01-23T02:24:16;2.60;99.90
18613;DHT22;9436;52.152;21.032;2023-01-23T02:26:47;2.60;99.90
18613;DHT22;9436;52.152;21.032;2023-01-23T02:29:14;2.60;99.90
18613;DHT22;9436;52.152;21.032;2023-01-23T02:31:43;2.60;99.90
18613;DHT22;9436;52.152;21.032;2023-01-23T02:34:12;2.60;99.90
18613;DHT22;9436;52.152;21.032;2023-01-23T02:36:41;2.60;99.90
18613;DHT22;9436;52.152;21.032;2023-01-23T02:39:12;2.60;99.90
18613;DHT22;9436;52.152;21.032;2023-01-23T02:41:42;2.60;99.90
18613;DHT22;9436;52.152;21.032;2023-01-23T02:44:14;2.70;99.90
18613;DHT22;9436;52.152;21.032;2023-01-23T02:46:42;2.70;99.90
18613;DHT22;9436;52.152;21.032;2023-01-23T02:49:09;2.70;99.90
18613;DHT22;9436;52.152;21.032;2023-01-23T02:51:36;2.70;99.90
18613;DHT22;9436;52.152;21.032;2023-01-23T02:54:06;2.60;99.90
18613;DHT22;9436;52.152;21.032;2023-01-23T02:56:33;2.70;99.90
18613;DHT22;9436;52.152;21.032;2023-01-23T02:59:00;2.70;99.90
18613;DHT22;9436;52.152;21.032;2023-01-23T03:01:47;2.70;99.90
18613;DHT22;9436;52.152;21.032;2023-01-23T03:04:14;2.70;99.90
18613;DHT22;9436;52.152;21.032;2023-01-23T03:06:41;2.60;99.90
18613;DHT22;9436;52.152;21.032;2023-01-23T03:09:10;2.60;99.90
18613;DHT22;9436;52.152;21.032;2023-01-23T03:11:38;2.60;99.90
18613;DHT22;9436;52.152;21.032;2023-01-23T03:14:08;2.60;99.90
18613;DHT22;9436;52.152;21.032;2023-01-23T03:16:35;2.70;99.90
18613;DHT22;9436;52.152;21.032;2023-01-23T03:19:05;2.60;99.90
18613;DHT22;9436;52.152;21.032;2023-01-23T03:21:34;2.60;99.90
18613;DHT22;9436;52.152;21.032;2023-01-23T03:24:04;2.60;99.90
18613;DHT22;9436;52.152;21.032;2023-01-23T03:26:31;2.70;99.90
18613;DHT22;9436;52.152;21.032;2023-01-23T03:28:58;2.80;99.90
18613;DHT22;9436;52.152;21.032;2023-01-23T03:31:43;2.80;99.90
18613;DHT22;9436;52.152;21.032;2023-01-23T03:34:14;2.70;99.90
18613;DHT22;9436;52.152;21.032;2023-01-23T03:36:42;2.70;99.90
18613;DHT22;9436;52.152;21.032;2023-01-23T03:39:09;2.90;99.90
18613;DHT22;9436;52.152;21.032;2023-01-23T03:41:54;2.90;99.90
18613;DHT22;9436;52.152;21.032;2023-01-23T03:44:21;2.80;99.90
18613;DHT22;9436;52.152;21.032;2023-01-23T03:46:49;2.80;99.90
18613;DHT22;9436;52.152;21.032;2023-01-23T03:49:18;2.80;99.90
18613;DHT22;9436;52.152;21.032;2023-01-23T03:51:46;2.70;99.90
18613;DHT22;9436;52.152;21.032;2023-01-23T03:54:13;2.60;99.90
18613;DHT22;9436;52.152;21.032;2023-01-23T03:56:40;2.70;99.90
18613;DHT22;9436;52.152;21.032;2023-01-23T03:59:07;2.60;99.90
18613;DHT22;9436;52.152;21.032;2023-01-23T04:01:35;2.70;99.90
18613;DHT22;9436;52.152;21.032;2023-01-23T04:04:02;2.70;99.90
18613;DHT22;9436;52.152;21.032;2023-01-23T04:06:31;2.60;99.90
18613;DHT22;9436;52.152;21.032;2023-01-23T04:08:58;2.60;99.90
18613;DHT22;9436;52.152;21.032;2023-01-23T04:11:25;2.60;99.90
18613;DHT22;9436;52.152;21.032;2023-01-23T04:13:53;2.60;99.90
18613;DHT22;9436;52.152;21.032;2023-01-23T04:16:21;2.50;99.90
18613;DHT22;9436;52.152;21.032;2023-01-23T04:18:48;2.60;99.90
18613;DHT22;9436;52.152;21.032;2023-01-23T04:21:16;2.50;99.90
18613;DHT22;9436;52.152;21.032;2023-01-23T04:23:44;2.50;99.90
18613;DHT22;9436;52.152;21.032;2023-01-23T04:26:12;2.50;99.90
18613;DHT22;9436;52.152;21.032;2023-01-23T04:28:39;2.50;99.90
18613;DHT22;9436;52.152;21.032;2023-01-23T04:31:06;2.50;99.90
18613;DHT22;9436;52.152;21.032;2023-01-23T04:33:35;2.50;99.90
18613;DHT22;9436;52.152;21.032;2023-01-23T04:36:04;2.50;99.90
18613;DHT22;9436;52.152;21.032;2023-01-23T04:38:32;2.40;99.90
18613;DHT22;9436;52.152;21.032;2023-01-23T04:41:01;2.70;99.90
18613;DHT22;9436;52.152;21.032;2023-01-23T04:43:29;2.60;99.90
18613;DHT22;9436;52.152;21.032;2023-01-23T04:45:57;2.50;99.90
18613;DHT22;9436;52.152;21.032;2023-01-23T04:48:24;2.60;99.90
18613;DHT22;9436;52.152;21.032;2023-01-23T04:50:51;2.50;99.90
18613;DHT22;9436;52.152;21.032;2023-01-23T04:53:18;2.50;99.90
18613;DHT22;9436;52.152;21.032;2023-01-23T04:55:46;2.50;99.90
18613;DHT22;9436;52.152;21.032;2023-01-23T04:58:17;2.50;99.90
18613;DHT22;9436;52.152;21.032;2023-01-23T05:00:45;2.50;99.90
18613;DHT22;9436;52.152;21.032;2023-01-23T05:03:12;2.50;99.90
18613;DHT22;9436;52.152;21.032;2023-01-23T05:05:40;2.50;99.90
18613;DHT22;9436;52.152;21.032;2023-01-23T05:08:08;2.60;99.90
18613;DHT22;9436;52.152;21.032;2023-01-23T05:10:36;2.80;99.90
18613;DHT22;9436;52.152;21.032;2023-01-23T05:13:04;2.80;99.90
18613;DHT22;9436;52.152;21.032;2023-01-23T05:15:32;2.80;99.90
18613;DHT22;9436;52.152;21.032;2023-01-23T05:17:59;2.90;99.90
18613;DHT22;9436;52.152;21.032;2023-01-23T05:20:26;2.70;99.90
18613;DHT22;9436;52.152;21.032;2023-01-23T05:22:53;2.70;99.90
18613;DHT22;9436;52.152;21.032;2023-01-23T05:25:22;2.60;99.90
18613;DHT22;9436;52.152;21.032;2023-01-23T05:27:50;2.50;99.90
18613;DHT22;9436;52.152;21.032;2023-01-23T05:30:20;2.60;99.90
18613;DHT22;9436;52.152;21.032;2023-01-23T05:32:49;2.60;99.90
18613;DHT22;9436;52.152;21.032;2023-01-23T05:35:16;2.60;99.90
18613;DHT22;9436;52.152;21.032;2023-01-23T05:37:48;2.60;99.90
18613;DHT22;9436;52.152;21.032;2023-01-23T05:40:15;2.60;99.90
18613;DHT22;9436;52.152;21.032;2023-01-23T05:42:42;2.60;99.90
18613;DHT22;9436;52.152;21.032;2023-01-23T05:45:10;2.50;99.90
18613;DHT22;9436;52.152;21.032;2023-01-23T05:47:37;2.40;99.90
18613;DHT22;9436;52.152;21.032;2023-01-23T05:50:07;2.50;99.90
18613;DHT22;9436;52.152;21.032;2023-01-23T05:52:35;2.60;99.90
18613;DHT22;9436;52.152;21.032;2023-01-23T05:55:03;2.60;99.90
18613;DHT22;9436;52.152;21.032;2023-01-23T05:57:30;2.60;99.90
18613;DHT22;9436;52.152;21.032;2023-01-23T05:59:57;2.70;99.90
18613;DHT22;9436;52.152;21.032;2023-01-23T06:02:24;2.80;99.90
18613;DHT22;9436;52.152;21.032;2023-01-23T06:04:51;2.80;99.90
18613;DHT22;9436;52.152;21.032;2023-01-23T06:07:20;2.60;99.90
18613;DHT22;9436;52.152;21.032;2023-01-23T06:09:47;2.80;99.90
18613;DHT22;9436;52.152;21.032;2023-01-23T06:12:14;2.70;99.90
18613;DHT22;9436;52.152;21.032;2023-01-23T06:14:41;2.70;99.90
18613;DHT22;9436;52.152;21.032;2023-01-23T06:17:10;2.70;99.90
18613;DHT22;9436;52.152;21.032;2023-01-23T06:19:37;2.80;99.90
18613;DHT22;9436;52.152;21.032;2023-01-23T06:22:04;2.90;99.90
18613;DHT22;9436;52.152;21.032;2023-01-23T06:24:33;2.90;99.90
18613;DHT22;9436;52.152;21.032;2023-01-23T06:27:00;2.80;99.90
18613;DHT22;9436;52.152;21.032;2023-01-23T06:29:28;2.90;99.90
18613;DHT22;9436;52.152;21.032;2023-01-23T06:31:55;3.00;99.90
18613;DHT22;9436;52.152;21.032;2023-01-23T06:34:23;3.00;99.90
18613;DHT22;9436;52.152;21.032;2023-01-23T06:36:50;3.20;99.90
18613;DHT22;9436;52.152;21.032;2023-01-23T06:39:17;3.40;99.90
18613;DHT22;9436;52.152;21.032;2023-01-23T06:41:45;3.40;99.90
18613;DHT22;9436;52.152;21.032;2023-01-23T06:44:12;3.60;99.90
18613;DHT22;9436;52.152;21.032;2023-01-23T06:46:39;3.60;99.90
18613;DHT22;9436;52.152;21.032;2023-01-23T06:49:06;3.40;99.90
18613;DHT22;9436;52.152;21.032;2023-01-23T06:51:33;3.50;99.90
18613;DHT22;9436;52.152;21.032;2023-01-23T06:54:00;3.60;99.90
18613;DHT22;9436;52.152;21.032;2023-01-23T06:56:27;3.60;99.90
18613;DHT22;9436;52.152;21.032;2023-01-23T06:58:56;4.00;99.90
18613;DHT22;9436;52.152;21.032;2023-01-23T07:01:23;3.90;99.90
18613;DHT22;9436;52.152;21.032;2023-01-23T07:03:51;3.90;99.90
18613;DHT22;9436;52.152;21.032;2023-01-23T07:06:18;3.90;99.90
18613;DHT22;9436;52.152;21.032;2023-01-23T07:08:45;3.90;99.90
18613;DHT22;9436;52.152;21.032;2023-01-23T07:11:13;3.70;99.90
18613;DHT22;9436;52.152;21.032;2023-01-23T07:13:40;4.00;99.90
18613;DHT22;9436;52.152;21.032;2023-01-23T07:16:09;4.10;99.90
18613;DHT22;9436;52.152;21.032;2023-01-23T07:18:36;4.20;99.90
18613;DHT22;9436;52.152;21.032;2023-01-23T07:21:04;4.30;99.90
18613;DHT22;9436;52.152;21.032;2023-01-23T07:23:32;4.10;99.90
18613;DHT22;9436;52.152;21.032;2023-01-23T07:26:00;4.20;99.90
18613;DHT22;9436;52.152;21.032;2023-01-23T07:28:28;4.20;99.90
18613;DHT22;9436;52.152;21.032;2023-01-23T07:30:56;4.20;99.90
18613;DHT22;9436;52.152;21.032;2023-01-23T07:33:26;4.40;99.90
18613;DHT22;9436;52.152;21.032;2023-01-23T07:35:53;4.30;99.90
18613;DHT22;9436;52.152;21.032;2023-01-23T07:38:20;4.20;99.90
18613;DHT22;9436;52.152;21.032;2023-01-23T07:40:48;4.20;99.90
18613;DHT22;9436;52.152;21.032;2023-01-23T07:43:16;4.20;99.90
18613;DHT22;9436;52.152;21.032;2023-01-23T07:45:43;4.40;99.90
18613;DHT22;9436;52.152;21.032;2023-01-23T07:48:10;4.40;99.90
18613;DHT22;9436;52.152;21.032;2023-01-23T07:50:38;4.60;99.90
18613;DHT22;9436;52.152;21.032;2023-01-23T07:53:06;4.50;99.90
18613;DHT22;9436;52.152;21.032;2023-01-23T07:55:33;4.50;99.90
18613;DHT22;9436;52.152;21.032;2023-01-23T07:58:00;4.80;99.90
18613;DHT22;9436;52.152;21.032;2023-01-23T08:00:27;4.50;99.90
18613;DHT22;9436;52.152;21.032;2023-01-23T08:02:55;4.30;99.90
18613;DHT22;9436;52.152;21.032;2023-01-23T08:05:23;4.10;99.90
18613;DHT22;9436;52.152;21.032;2023-01-23T08:07:53;4.20;99.90
18613;DHT22;9436;52.152;21.032;2023-01-23T08:10:20;3.90;99.90
18613;DHT22;9436;52.152;21.032;2023-01-23T08:12:47;4.20;99.90
18613;DHT22;9436;52.152;21.032;2023-01-23T08:15:15;5.10;99.90
18613;DHT22;9436;52.152;21.032;2023-01-23T08:17:42;5.40;99.90
18613;DHT22;9436;52.152;21.032;2023-01-23T08:20:09;5.00;99.90
18613;DHT22;9436;52.152;21.032;2023-01-23T08:22:37;4.60;99.90
18613;DHT22;9436;52.152;21.032;2023-01-23T08:25:08;4.30;99.90
18613;DHT22;9436;52.152;21.032;2023-01-23T08:27:37;4.10;99.90
18613;DHT22;9436;52.152;21.032;2023-01-23T08:30:06;3.80;99.90
18613;DHT22;9436;52.152;21.032;2023-01-23T08:32:34;3.80;99.90
18613;DHT22;9436;52.152;21.032;2023-01-23T08:35:01;3.70;99.90
18613;DHT22;9436;52.152;21.032;2023-01-23T08:37:29;3.60;99.90
18613;DHT22;9436;52.152;21.032;2023-01-23T08:39:58;3.50;99.90
18613;DHT22;9436;52.152;21.032;2023-01-23T08:42:26;3.40;99.90
18613;DHT22;9436;52.152;21.032;2023-01-23T08:44:54;3.10;99.90
18613;DHT22;9436;52.152;21.032;2023-01-23T08:47:21;3.10;99.90
18613;DHT22;9436;52.152;21.032;2023-01-23T08:49:49;3.00;99.90
18613;DHT22;9436;52.152;21.032;2023-01-23T08:52:16;4.30;99.90
18613;DHT22;9436;52.152;21.032;2023-01-23T08:54:43;5.10;99.90
18613;DHT22;9436;52.152;21.032;2023-01-23T08:57:10;4.70;99.90
18613;DHT22;9436;52.152;21.032;2023-01-23T08:59:39;4.30;99.90
18613;DHT22;9436;52.152;21.032;2023-01-23T09:02:10;4.00;99.90
18613;DHT22;9436;52.152;21.032;2023-01-23T09:04:37;3.90;99.90
18613;DHT22;9436;52.152;21.032;2023-01-23T09:07:05;3.80;99.90
18613;DHT22;9436;52.152;21.032;2023-01-23T09:09:32;3.60;99.90
18613;DHT22;9436;52.152;21.032;2023-01-23T09:11:59;3.50;99.90
18613;DHT22;9436;52.152;21.032;2023-01-23T09:14:26;3.40;99.90
18613;DHT22;9436;52.152;21.032;2023-01-23T09:16:54;3.40;99.90
18613;DHT22;9436;52.152;21.032;2023-01-23T09:19:21;3.30;99.90
18613;DHT22;9436;52.152;21.032;2023-01-23T09:21:51;3.10;99.90
18613;DHT22;9436;52.152;21.032;2023-01-23T09:24:18;3.10;99.90
18613;DHT22;9436;52.152;21.032;2023-01-23T09:26:45;3.10;99.90
18613;DHT22;9436;52.152;21.032;2023-01-23T09:29:13;3.10;99.90
18613;DHT22;9436;52.152;21.032;2023-01-23T09:31:40;3.20;99.90
18613;DHT22;9436;52.152;21.032;2023-01-23T09:34:09;3.20;99.90
18613;DHT22;9436;52.152;21.032;2023-01-23T09:36:36;3.20;99.90
18613;DHT22;9436;52.152;21.032;2023-01-23T09:39:03;3.20;99.90
18613;DHT22;9436;52.152;21.032;2023-01-23T09:41:30;3.20;99.90
18613;DHT22;9436;52.152;21.032;2023-01-23T09:43:59;3.20;99.90
18613;DHT22;9436;52.152;21.032;2023-01-23T09:46:35;3.20;99.90
18613;DHT22;9436;52.152;21.032;2023-01-23T09:49:12;3.30;99.90
18613;DHT22;9436;52.152;21.032;2023-01-23T09:51:51;3.30;99.90
18613;DHT22;9436;52.152;21.032;2023-01-23T09:54:36;3.30;99.90
18613;DHT22;9436;52.152;21.032;2023-01-23T09:57:13;3.20;99.90
18613;DHT22;9436;52.152;21.032;2023-01-23T09:59:44;3.20;99.90
18613;DHT22;9436;52.152;21.032;2023-01-23T10:02:14;3.20;99.90
18613;DHT22;9436;52.152;21.032;2023-01-23T10:04:46;3.30;99.90
18613;DHT22;9436;52.152;21.032;2023-01-23T10:07:26;3.30;99.90
18613;DHT22;9436;52.152;21.032;2023-01-23T10:10:07;3.20;99.90
18613;DHT22;9436;52.152;21.032;2023-01-23T10:12:43;3.20;99.90
18613;DHT22;9436;52.152;21.032;2023-01-23T10:15:19;3.30;99.90
18613;DHT22;9436;52.152;21.032;2023-01-23T10:17:54;3.20;99.90
18613;DHT22;9436;52.152;21.032;2023-01-23T10:20:42;3.20;99.90
18613;DHT22;9436;52.152;21.032;2023-01-23T10:23:23;3.30;99.90
18613;DHT22;9436;52.152;21.032;2023-01-23T10:25:54;3.40;99.90
18613;DHT22;9436;52.152;21.032;2023-01-23T10:28:28;3.60;99.90
18613;DHT22;9436;52.152;21.032;2023-01-23T10:31:00;3.80;99.90
18613;DHT22;9436;52.152;21.032;2023-01-23T10:33:35;3.70;99.90
18613;DHT22;9436;52.152;21.032;2023-01-23T10:36:13;3.50;99.90
18613;DHT22;9436;52.152;21.032;2023-01-23T10:38:48;3.50;99.90
18613;DHT22;9436;52.152;21.032;2023-01-23T10:41:20;3.50;99.90
18613;DHT22;9436;52.152;21.032;2023-01-23T10:43:49;3.40;99.90
18613;DHT22;9436;52.152;21.032;2023-01-23T10:46:18;3.40;99.90
18613;DHT22;9436;52.152;21.032;2023-01-23T10:48:46;3.40;99.90
18613;DHT22;9436;52.152;21.032;2023-01-23T10:51:30;3.40;99.90
18613;DHT22;9436;52.152;21.032;2023-01-23T10:54:05;3.50;99.90
18613;DHT22;9436;52.152;21.032;2023-01-23T10:56:34;3.40;99.90
18613;DHT22;9436;52.152;21.032;2023-01-23T10:59:02;3.40;99.90
18613;DHT22;9436;52.152;21.032;2023-01-23T11:01:32;3.90;99.90
18613;DHT22;9436;52.152;21.032;2023-01-23T11:04:09;4.70;99.90
18613;DHT22;9436;52.152;21.032;2023-01-23T11:06:38;4.40;99.90
18613;DHT22;9436;52.152;21.032;2023-01-23T11:09:18;4.40;99.90
18613;DHT22;9436;52.152;21.032;2023-01-23T11:12:01;4.10;99.90
18613;DHT22;9436;52.152;21.032;2023-01-23T11:14:29;3.90;99.90
18613;DHT22;9436;52.152;21.032;2023-01-23T11:17:10;3.80;99.90
18613;DHT22;9436;52.152;21.032;2023-01-23T11:19:39;3.80;99.90
18613;DHT22;9436;52.152;21.032;2023-01-23T11:22:24;3.80;99.90
18613;DHT22;9436;52.152;21.032;2023-01-23T11:24:52;3.70;99.90
18613;DHT22;9436;52.152;21.032;2023-01-23T11:27:21;3.70;99.90
18613;DHT22;9436;52.152;21.032;2023-01-23T11:30:11;3.80;99.90
18613;DHT22;9436;52.152;21.032;2023-01-23T11:32:48;3.90;99.90
18613;DHT22;9436;52.152;21.032;2023-01-23T11:35:21;3.70;99.90
18613;DHT22;9436;52.152;21.032;2023-01-23T11:37:52;3.80;99.90
18613;DHT22;9436;52.152;21.032;2023-01-23T11:40:22;3.70;99.90
18613;DHT22;9436;52.152;21.032;2023-01-23T11:42:49;3.70;99.90
18613;DHT22;9436;52.152;21.032;2023-01-23T11:45:31;3.60;99.90
18613;DHT22;9436;52.152;21.032;2023-01-23T11:50:57;3.50;99.90
18613;DHT22;9436;52.152;21.032;2023-01-23T11:53:33;3.50;99.90
18613;DHT22;9436;52.152;21.032;2023-01-23T11:56:39;3.50;99.90
18613;DHT22;9436;52.152;21.032;2023-01-23T11:59:23;3.40;99.90
18613;DHT22;9436;52.152;21.032;2023-01-23T12:02:22;3.50;99.90
18613;DHT22;9436;52.152;21.032;2023-01-23T12:08:16;3.60;99.90
18613;DHT22;9436;52.152;21.032;2023-01-23T12:10:53;3.60;99.90
18613;DHT22;9436;52.152;21.032;2023-01-23T12:13:51;3.70;99.90
18613;DHT22;9436;52.152;21.032;2023-01-23T12:16:24;3.70;99.90
18613;DHT22;9436;52.152;21.032;2023-01-23T12:19:10;3.80;99.90
18613;DHT22;9436;52.152;21.032;2023-01-23T12:21:44;3.60;99.90
18613;DHT22;9436;52.152;21.032;2023-01-23T12:24:21;3.60;99.90
18613;DHT22;9436;52.152;21.032;2023-01-23T12:26:59;3.50;99.90
18613;DHT22;9436;52.152;21.032;2023-01-23T12:29:41;3.60;99.90
18613;DHT22;9436;52.152;21.032;2023-01-23T12:32:28;3.70;99.90
18613;DHT22;9436;52.152;21.032;2023-01-23T12:35:08;3.60;99.90
18613;DHT22;9436;52.152;21.032;2023-01-23T12:37:55;3.60;99.90
18613;DHT22;9436;52.152;21.032;2023-01-23T12:40:29;3.60;99.90
18613;DHT22;9436;52.152;21.032;2023-01-23T12:43:06;3.60;99.90
18613;DHT22;9436;52.152;21.032;2023-01-23T12:45:37;3.50;99.90
18613;DHT22;9436;52.152;21.032;2023-01-23T12:48:12;3.50;99.90
18613;DHT22;9436;52.152;21.032;2023-01-23T12:50:45;3.50;99.90
18613;DHT22;9436;52.152;21.032;2023-01-23T12:53:14;3.60;99.90
18613;DHT22;9436;52.152;21.032;2023-01-23T12:55:51;3.70;99.90
18613;DHT22;9436;52.152;21.032;2023-01-23T12:58:21;3.60;99.90
18613;DHT22;9436;52.152;21.032;2023-01-23T13:00:59;3.60;99.90
18613;DHT22;9436;52.152;21.032;2023-01-23T13:03:46;3.70;99.90
18613;DHT22;9436;52.152;21.032;2023-01-23T13:06:25;3.70;99.90
18613;DHT22;9436;52.152;21.032;2023-01-23T13:08:58;3.80;99.90
18613;DHT22;9436;52.152;21.032;2023-01-23T13:11:34;3.80;99.90
18613;DHT22;9436;52.152;21.032;2023-01-23T13:14:20;3.70;99.90
18613;DHT22;9436;52.152;21.032;2023-01-23T13:16:49;3.70;99.90
18613;DHT22;9436;52.152;21.032;2023-01-23T13:19:23;3.70;99.90
18613;DHT22;9436;52.152;21.032;2023-01-23T13:22:20;3.50;99.90
18613;DHT22;9436;52.152;21.032;2023-01-23T13:24:49;3.50;99.90
18613;DHT22;9436;52.152;21.032;2023-01-23T13:27:40;3.60;99.90
18613;DHT22;9436;52.152;21.032;2023-01-23T13:30:43;3.60;99.90
18613;DHT22;9436;52.152;21.032;2023-01-23T13:36:31;3.70;99.90
18613;DHT22;9436;52.152;21.032;2023-01-23T13:44:33;3.70;99.90
18613;DHT22;9436;52.152;21.032;2023-01-23T13:47:17;3.90;99.90
18613;DHT22;9436;52.152;21.032;2023-01-23T13:50:09;3.70;99.90
18613;DHT22;9436;52.152;21.032;2023-01-23T13:52:39;3.60;99.90
18613;DHT22;9436;52.152;21.032;2023-01-23T13:55:28;3.70;99.90
18613;DHT22;9436;52.152;21.032;2023-01-23T13:58:15;4.10;99.90
18613;DHT22;9436;52.152;21.032;2023-01-23T14:00:46;3.90;99.90
18613;DHT22;9436;52.152;21.032;2023-01-23T14:03:37;3.90;99.90
18613;DHT22;9436;52.152;21.032;2023-01-23T14:06:31;3.90;99.90
18613;DHT22;9436;52.152;21.032;2023-01-23T14:08:59;3.70;99.90
18613;DHT22;9436;52.152;21.032;2023-01-23T14:11:34;4.00;99.90
18613;DHT22;9436;52.152;21.032;2023-01-23T14:14:03;4.00;99.90
18613;DHT22;9436;52.152;21.032;2023-01-23T14:16:49;3.80;99.90
18613;DHT22;9436;52.152;21.032;2023-01-23T14:19:22;3.90;99.90
18613;DHT22;9436;52.152;21.032;2023-01-23T14:21:52;3.90;99.90
18613;DHT22;9436;52.152;21.032;2023-01-23T14:24:22;3.80;99.90
18613;DHT22;9436;52.152;21.032;2023-01-23T14:26:52;4.00;99.90
18613;DHT22;9436;52.152;21.032;2023-01-23T14:29:21;4.30;99.90
18613;DHT22;9436;52.152;21.032;2023-01-23T14:31:48;4.20;99.90
18613;DHT22;9436;52.152;21.032;2023-01-23T14:34:18;4.50;99.90
18613;DHT22;9436;52.152;21.032;2023-01-23T14:36:50;5.00;99.90
18613;DHT22;9436;52.152;21.032;2023-01-23T14:39:19;5.30;99.90
18613;DHT22;9436;52.152;21.032;2023-01-23T14:41:47;5.50;99.90
18613;DHT22;9436;52.152;21.032;2023-01-23T14:44:19;5.30;99.90
18613;DHT22;9436;52.152;21.032;2023-01-23T14:46:50;5.00;99.90
18613;DHT22;9436;52.152;21.032;2023-01-23T14:49:23;4.70;99.90
18613;DHT22;9436;52.152;21.032;2023-01-23T14:51:58;4.50;99.90
18613;DHT22;9436;52.152;21.032;2023-01-23T14:54:25;4.40;99.90
18613;DHT22;9436;52.152;21.032;2023-01-23T14:56:53;4.30;99.90
18613;DHT22;9436;52.152;21.032;2023-01-23T14:59:27;4.40;99.90
18613;DHT22;9436;52.152;21.032;2023-01-23T15:01:56;4.70;99.90
18613;DHT22;9436;52.152;21.032;2023-01-23T15:04:24;4.50;99.90
18613;DHT22;9436;52.152;21.032;2023-01-23T15:06:57;4.40;99.90
18613;DHT22;9436;52.152;21.032;2023-01-23T15:09:27;4.60;99.90
18613;DHT22;9436;52.152;21.032;2023-01-23T15:11:54;4.50;99.90
18613;DHT22;9436;52.152;21.032;2023-01-23T15:14:24;4.40;99.90
18613;DHT22;9436;52.152;21.032;2023-01-23T15:16:59;4.20;99.90
18613;DHT22;9436;52.152;21.032;2023-01-23T15:19:27;4.20;99.90
18613;DHT22;9436;52.152;21.032;2023-01-23T15:22:16;4.20;99.90
18613;DHT22;9436;52.152;21.032;2023-01-23T15:24:44;4.50;99.90
18613;DHT22;9436;52.152;21.032;2023-01-23T15:27:26;4.90;99.90
18613;DHT22;9436;52.152;21.032;2023-01-23T15:30:27;5.20;99.90
18613;DHT22;9436;52.152;21.032;2023-01-23T15:32:54;5.60;99.90
18613;DHT22;9436;52.152;21.032;2023-01-23T15:35:21;6.00;99.90
18613;DHT22;9436;52.152;21.032;2023-01-23T15:37:50;6.30;99.90
18613;DHT22;9436;52.152;21.032;2023-01-23T15:40:25;5.80;99.90
18613;DHT22;9436;52.152;21.032;2023-01-23T15:43:05;5.20;99.90
18613;DHT22;9436;52.152;21.032;2023-01-23T15:45:34;4.60;99.90
18613;DHT22;9436;52.152;21.032;2023-01-23T15:48:01;4.30;99.90
18613;DHT22;9436;52.152;21.032;2023-01-23T15:50:29;4.30;99.90
18613;DHT22;9436;52.152;21.032;2023-01-23T15:52:57;4.30;99.90
18613;DHT22;9436;52.152;21.032;2023-01-23T15:55:25;4.10;99.90
18613;DHT22;9436;52.152;21.032;2023-01-23T15:57:54;3.90;99.90
18613;DHT22;9436;52.152;21.032;2023-01-23T16:00:22;3.90;99.90
18613;DHT22;9436;52.152;21.032;2023-01-23T16:02:50;3.90;99.90
18613;DHT22;9436;52.152;21.032;2023-01-23T16:05:18;3.70;99.90
18613;DHT22;9436;52.152;21.032;2023-01-23T16:07:45;3.90;99.90
18613;DHT22;9436;52.152;21.032;2023-01-23T16:10:19;3.80;99.90
18613;DHT22;9436;52.152;21.032;2023-01-23T16:12:47;3.60;99.90
18613;DHT22;9436;52.152;21.032;2023-01-23T16:15:15;3.50;99.90
18613;DHT22;9436;52.152;21.032;2023-01-23T16:17:43;3.50;99.90
18613;DHT22;9436;52.152;21.032;2023-01-23T16:20:13;3.50;99.90
18613;DHT22;9436;52.152;21.032;2023-01-23T16:22:40;3.50;99.90